Time;durP1;ratioP1;P1;durP2;ratioP2;P2;SDS_P1;SDS_P2;PMS_P1;PMS_P2;Temp;Humidity;BMP_temperature;BMP_pressure;BME280_temperature;BME280_humidity;BME280_pressure;Samples;Min_cycle;Max_cycle;Signal;HPM_P1;HPM_P2
2023/10/09 00:03:06;;;;;;;6.97;3.42;;;;;;;;;;5049916;28;20036;-70
2023/10/09 00:05:45;;;;;;;7.88;3.67;;;;;;;;;;5043216;28;20051;-70
2023/10/09 00:08:30;;;;;;;5.30;3.03;;;;;;;;;;5038501;28;20110;-70
2023/10/09 00:10:58;;;;;;;6.47;3.22;;;;;;;;;;5046395;28;20033;-70
2023/10/09 00:13:31;;;;;;;5.22;3.38;;;;;;;;;;5051909;28;20036;-70
2023/10/09 00:16:13;;;;;;;4.40;2.90;;;;;;;;;;5054147;28;20032;-70
2023/10/09 00:18:39;;;;;;;4.22;2.78;;;;;;;;;;5075752;28;20028;-71
2023/10/09 00:21:20;;;;;;;5.65;3.70;;;;;;;;;;5073517;28;20091;-70
2023/10/09 00:23:52;;;;;;;6.53;4.00;;;;;;;;;;5073892;28;20051;-70
2023/10/09 00:26:17;;;;;;;5.07;3.05;;;;;;;;;;5056587;28;20474;-70
2023/10/09 00:28:47;;;;;;;5.78;2.83;;;;;;;;;;5074029;28;20031;-70
2023/10/09 00:31:15;;;;;;;8.52;3.03;;;;;;;;;;5074500;28;20099;-70
2023/10/09 00:33:41;;;;;;;4.55;3.47;;;;;;;;;;5056596;28;20509;-70
2023/10/09 00:36:10;;;;;;;4.43;2.38;;;;;;;;;;5054361;28;20025;-70
2023/10/09 00:38:38;;;;;;;7.47;3.08;;;;;;;;;;5050463;28;20390;-70
2023/10/09 00:43:32;;;;;;;6.00;3.33;;;;;;;;;;5074091;28;20024;-70
2023/10/09 00:46:03;;;;;;;6.60;2.78;;;;;;;;;;5073669;28;20047;-71
2023/10/09 00:48:37;;;;;;;4.10;3.05;;;;;;;;;;5056625;28;20492;-71
2023/10/09 00:51:15;;;;;;;4.13;3.17;;;;;;;;;;5073549;28;20032;-71
2023/10/09 00:53:40;;;;;;;5.18;3.22;;;;;;;;;;5057643;28;20020;-70
2023/10/09 00:56:11;;;;;;;4.43;2.80;;;;;;;;;;5056020;28;20023;-71
2023/10/09 00:58:36;;;;;;;3.47;2.60;;;;;;;;;;5056925;28;20547;-70
2023/10/09 01:01:04;;;;;;;5.05;2.78;;;;;;;;;;5055729;28;20028;-71
2023/10/09 01:03:33;;;;;;;3.97;2.50;;;;;;;;;;5055575;28;20070;-70
2023/10/09 01:06:16;;;;;;;5.93;2.50;;;;;;;;;;5073692;28;20081;-71
2023/10/09 01:11:18;;;;;;;5.45;2.63;;;;;;;;;;5056152;28;20036;-70
2023/10/09 01:16:17;;;;;;;3.22;2.30;;;;;;;;;;5056493;28;20116;-70
2023/10/09 01:18:57;;;;;;;3.55;2.47;;;;;;;;;;5055480;28;20062;-70
2023/10/09 01:21:26;;;;;;;4.85;2.08;;;;;;;;;;5056617;28;20386;-70
2023/10/09 01:24:03;;;;;;;3.00;2.10;;;;;;;;;;5074404;28;20021;-70
2023/10/09 01:26:34;;;;;;;4.47;2.25;;;;;;;;;;5069409;28;20453;-70
2023/10/09 01:29:00;;;;;;;3.75;2.15;;;;;;;;;;5055805;28;20028;-70
2023/10/09 01:31:26;;;;;;;10.23;2.50;;;;;;;;;;5073708;28;20067;-70
2023/10/09 01:33:59;;;;;;;6.97;2.38;;;;;;;;;;5060310;28;20083;-70
2023/10/09 01:36:31;;;;;;;4.07;1.90;;;;;;;;;;5060623;28;20163;-70
2023/10/09 01:38:59;;;;;;;6.28;2.15;;;;;;;;;;5044923;28;20054;-70
2023/10/09 01:41:24;;;;;;;3.28;2.08;;;;;;;;;;5096525;28;20079;-70
2023/10/09 01:43:52;;;;;;;3.00;2.28;;;;;;;;;;5099573;28;20032;-70
2023/10/09 01:46:19;;;;;;;3.03;2.35;;;;;;;;;;5080387;28;20553;-70
2023/10/09 01:48:46;;;;;;;3.05;2.45;;;;;;;;;;5080354;28;20112;-70
2023/10/09 01:51:17;;;;;;;3.35;1.65;;;;;;;;;;5079705;28;20410;-70
2023/10/09 01:53:44;;;;;;;3.40;2.08;;;;;;;;;;5062558;28;20028;-70
2023/10/09 01:56:17;;;;;;;6.32;2.33;;;;;;;;;;5078766;28;20033;-70
2023/10/09 01:58:47;;;;;;;3.95;1.60;;;;;;;;;;5062622;28;20394;-70
2023/10/09 02:01:13;;;;;;;3.25;2.00;;;;;;;;;;5062305;28;20060;-70
2023/10/09 02:03:42;;;;;;;5.38;2.72;;;;;;;;;;5079153;28;20044;-70
2023/10/09 02:06:24;;;;;;;4.03;1.90;;;;;;;;;;5062312;28;20099;-70
2023/10/09 02:08:51;;;;;;;3.95;1.85;;;;;;;;;;5046707;28;20063;-70
2023/10/09 02:11:24;;;;;;;5.53;2.53;;;;;;;;;;5059571;28;20025;-70
2023/10/09 02:13:58;;;;;;;4.18;2.08;;;;;;;;;;5059195;28;20025;-70
2023/10/09 02:16:28;;;;;;;4.28;2.20;;;;;;;;;;5059675;28;20021;-70
2023/10/09 02:18:55;;;;;;;3.40;1.90;;;;;;;;;;5059825;28;20013;-70
2023/10/09 02:21:35;;;;;;;2.53;1.95;;;;;;;;;;5042146;28;20536;-70
2023/10/09 02:24:09;;;;;;;4.18;1.98;;;;;;;;;;5043563;28;20083;-70
2023/10/09 02:27:06;;;;;;;3.42;2.28;;;;;;;;;;5042963;28;20032;-70
2023/10/09 02:29:26;;;;;;;4.63;2.50;;;;;;;;;;5045455;28;20086;-70
2023/10/09 02:31:52;;;;;;;3.05;2.03;;;;;;;;;;5041657;28;20028;-70
2023/10/09 02:34:21;;;;;;;3.30;2.03;;;;;;;;;;5059733;28;20035;-70
2023/10/09 02:36:57;;;;;;;3.60;2.30;;;;;;;;;;5059629;28;20021;-70
2023/10/09 02:39:23;;;;;;;5.63;1.90;;;;;;;;;;5043626;28;20378;-70
2023/10/09 02:41:50;;;;;;;4.75;3.47;;;;;;;;;;5041601;28;20032;-70
2023/10/09 02:44:15;;;;;;;4.80;2.67;;;;;;;;;;5058435;28;20024;-70
2023/10/09 02:46:41;;;;;;;2.15;1.92;;;;;;;;;;5037935;28;20063;-70
2023/10/09 02:49:06;;;;;;;3.92;2.40;;;;;;;;;;5038109;28;20487;-70
2023/10/09 02:51:32;;;;;;;4.15;2.42;;;;;;;;;;5056096;28;20032;-70
2023/10/09 02:54:07;;;;;;;4.25;2.38;;;;;;;;;;5056283;28;20047;-70
2023/10/09 02:56:40;;;;;;;4.63;2.60;;;;;;;;;;5038706;28;20094;-70
2023/10/09 02:59:06;;;;;;;3.97;2.50;;;;;;;;;;5039769;28;20029;-70
2023/10/09 03:01:34;;;;;;;4.18;2.60;;;;;;;;;;5038306;28;20021;-70
2023/10/09 03:04:02;;;;;;;3.05;2.10;;;;;;;;;;5038747;28;20025;-70
2023/10/09 03:06:31;;;;;;;3.47;2.15;;;;;;;;;;5056338;28;20107;-70
2023/10/09 03:08:57;;;;;;;3.28;1.80;;;;;;;;;;5038900;28;20395;-70
2023/10/09 03:11:23;;;;;;;3.85;2.25;;;;;;;;;;5037569;28;20025;-70
2023/10/09 03:13:48;;;;;;;5.93;2.35;;;;;;;;;;5038150;28;20071;-70
2023/10/09 03:16:20;;;;;;;3.08;2.50;;;;;;;;;;5056081;28;20025;-70
2023/10/09 03:18:54;;;;;;;;;;;;;;;;;;5056319;28;20025;-70
2023/10/09 03:21:19;;;;;;;3.83;2.47;;;;;;;;;;5055355;28;20004;-70
2023/10/09 03:23:49;;;;;;;3.50;2.30;;;;;;;;;;5038275;28;20044;-70
2023/10/09 03:26:17;;;;;;;4.07;2.50;;;;;;;;;;5038648;28;20064;-70
2023/10/09 03:28:43;;;;;;;4.70;2.72;;;;;;;;;;5037975;28;20021;-70
2023/10/09 03:31:10;;;;;;;4.00;2.60;;;;;;;;;;5055542;28;20056;-70
2023/10/09 03:33:39;;;;;;;5.28;2.92;;;;;;;;;;5038085;28;20021;-70
2023/10/09 03:36:09;;;;;;;5.40;2.97;;;;;;;;;;5037221;28;20471;-70
2023/10/09 03:38:38;;;;;;;5.68;2.38;;;;;;;;;;5055387;28;20036;-70
2023/10/09 03:41:12;;;;;;;8.77;3.00;;;;;;;;;;5055161;28;20039;-70
2023/10/09 03:43:40;;;;;;;4.22;2.75;;;;;;;;;;5058588;28;20394;-70
2023/10/09 03:46:20;;;;;;;5.13;3.22;;;;;;;;;;5051888;28;20102;-70
2023/10/09 03:48:46;;;;;;;5.93;2.83;;;;;;;;;;5078769;28;20016;-70
2023/10/09 03:51:13;;;;;;;6.45;3.20;;;;;;;;;;5061501;28;20082;-70
2023/10/09 03:53:39;;;;;;;5.35;3.00;;;;;;;;;;5074980;28;20028;-70
2023/10/09 03:56:15;;;;;;;6.88;3.33;;;;;;;;;;5056556;28;20021;-70
2023/10/09 03:58:44;;;;;;;5.55;3.67;;;;;;;;;;5058058;28;20091;-70
2023/10/09 04:01:17;;;;;;;4.22;3.00;;;;;;;;;;5075012;28;20027;-70
2023/10/09 04:03:43;;;;;;;4.70;3.00;;;;;;;;;;5057849;28;20482;-70
2023/10/09 04:06:11;;;;;;;6.28;3.70;;;;;;;;;;5074752;28;20040;-70
2023/10/09 04:08:39;;;;;;;6.93;4.32;;;;;;;;;;5074621;28;20044;-70
2023/10/09 04:11:16;;;;;;;5.68;3.95;;;;;;;;;;5074299;28;20421;-70
2023/10/09 04:13:45;;;;;;;7.63;4.13;;;;;;;;;;5074551;28;20025;-70
2023/10/09 04:16:19;;;;;;;6.35;4.53;;;;;;;;;;5074579;28;20421;-70
2023/10/09 04:18:45;;;;;;;7.32;4.30;;;;;;;;;;5057584;28;20040;-70
2023/10/09 04:21:18;;;;;;;10.43;4.72;;;;;;;;;;5074570;28;20024;-70
2023/10/09 04:23:59;;;;;;;7.53;4.35;;;;;;;;;;5057909;28;20474;-70
2023/10/09 04:26:25;;;;;;;7.68;5.38;;;;;;;;;;5058586;28;20027;-70
2023/10/09 04:28:52;;;;;;;9.88;4.85;;;;;;;;;;5039340;28;20016;-70
2023/10/09 04:31:21;;;;;;;9.27;4.95;;;;;;;;;;5056845;28;20120;-70
2023/10/09 04:34:21;;;;;;;5.85;4.80;;;;;;;;;;5074570;28;20073;-70
2023/10/09 04:36:46;;;;;;;11.85;4.47;;;;;;;;;;5058726;28;20024;-70
2023/10/09 04:44:29;;;;;;;6.25;4.38;;;;;;;;;;5058843;28;20031;-70
2023/10/09 04:57:45;;;;;;;8.85;4.55;;;;;;;;;;5073595;28;20355;-70
2023/10/09 05:02:56;;;;;;;8.43;4.60;;;;;;;;;;5037850;28;20021;-70
2023/10/09 05:08:21;;;;;;;7.65;5.65;;;;;;;;;;5066139;28;20493;-70
2023/10/09 05:13:42;;;;;;;7.80;5.55;;;;;;;;;;5074438;28;20072;-70
2023/10/09 05:16:19;;;;;;;7.15;5.10;;;;;;;;;;5073155;28;20103;-70
2023/10/09 05:19:08;;;;;;;11.27;5.53;;;;;;;;;;5056295;28;20016;-70
2023/10/09 05:29:48;;;;;;;7.80;4.97;;;;;;;;;;5074223;28;20382;-70
2023/10/09 05:37:32;;;;;;;7.43;4.35;;;;;;;;;;5058338;28;20082;-70
2023/10/09 05:40:22;;;;;;;8.80;4.88;;;;;;;;;;5054227;28;20051;-70
2023/10/09 05:42:57;;;;;;;7.35;4.13;;;;;;;;;;5058781;28;20034;-70
2023/10/09 05:46:07;;;;;;;7.13;4.55;;;;;;;;;;5072729;28;20107;-70
2023/10/09 06:04:15;;;;;;;;;;;;;;;;;;5043437;28;20087;-70
2023/10/09 06:06:55;;;;;;;8.98;3.72;;;;;;;;;;5071868;28;19912;-70
2023/10/09 06:14:24;;;;;;;6.57;4.10;;;;;;;;;;5055029;28;20036;-70
2023/10/09 06:30:24;;;;;;;;;;;;;;;;;;5061199;28;20032;-70
2023/10/09 06:32:50;;;;;;;5.38;3.47;;;;;;;;;;5074661;28;19963;-70
2023/10/09 06:35:21;;;;;;;4.80;3.55;;;;;;;;;;5075845;28;20078;-70
2023/10/09 06:43:09;;;;;;;6.60;3.17;;;;;;;;;;5060051;28;20431;-70
2023/10/09 06:45:43;;;;;;;7.45;4.22;;;;;;;;;;5076349;28;20020;-70
2023/10/09 06:50:58;;;;;;;5.40;3.38;;;;;;;;;;5061174;28;20529;-70
2023/10/09 06:53:58;;;;;;;8.07;4.72;;;;;;;;;;5075925;28;20095;-70
2023/10/09 06:56:22;;;;;;;8.05;3.90;;;;;;;;;;5075537;28;20398;-70
2023/10/09 06:58:48;;;;;;;9.43;4.55;;;;;;;;;;5075475;28;20409;-70
2023/10/09 07:01:19;;;;;;;7.03;3.97;;;;;;;;;;5075703;28;20023;-70
2023/10/09 07:03:59;;;;;;;7.47;4.05;;;;;;;;;;5053724;28;20034;-70
2023/10/09 07:06:48;;;;;;;6.65;3.72;;;;;;;;;;5059968;28;20039;-70
2023/10/09 07:25:14;;;;;;;7.50;4.32;;;;;;;;;;5058470;28;20028;-70
2023/10/09 07:27:51;;;;;;;4.88;3.97;;;;;;;;;;5059778;28;20085;-70
2023/10/09 07:38:19;;;;;;;4.72;3.53;;;;;;;;;;5076205;28;20056;-69
2023/10/09 07:43:35;;;;;;;;;;;;;;;;;;5053840;28;20031;-70
2023/10/09 07:48:38;;;;;;;6.03;3.55;;;;;;;;;;5057109;28;20039;-69
2023/10/09 07:51:12;;;;;;;5.97;3.40;;;;;;;;;;5075914;28;20512;-70
2023/10/09 07:53:44;;;;;;;4.82;3.20;;;;;;;;;;5077578;28;20020;-70
2023/10/09 07:56:09;;;;;;;4.88;3.65;;;;;;;;;;5074698;28;20031;-70
2023/10/09 07:58:45;;;;;;;5.32;3.00;;;;;;;;;;5067686;28;20013;-70
2023/10/09 08:01:34;;;;;;;3.78;2.80;;;;;;;;;;5068753;28;20034;-70
2023/10/09 08:04:13;;;;;;;4.20;3.15;;;;;;;;;;5060174;28;20031;-70
2023/10/09 08:06:39;;;;;;;3.90;2.85;;;;;;;;;;5058628;28;20054;-71
2023/10/09 08:17:15;;;;;;;4.40;3.05;;;;;;;;;;5074931;28;20052;-70
2023/10/09 08:19:53;;;;;;;4.07;2.97;;;;;;;;;;5073619;28;20024;-69
2023/10/09 08:24:57;;;;;;;4.15;3.28;;;;;;;;;;5056533;28;20020;-70
2023/10/09 08:32:45;;;;;;;3.38;2.58;;;;;;;;;;5090804;28;20474;-70
2023/10/09 08:35:55;;;;;;;6.85;3.30;;;;;;;;;;5040930;28;20042;-70
2023/10/09 08:38:07;;;;;;;3.30;2.42;;;;;;;;;;5056722;28;20082;-70
2023/10/09 08:40:37;;;;;;;4.35;2.75;;;;;;;;;;5061741;28;20028;-70
2023/10/09 08:43:22;;;;;;;3.90;3.28;;;;;;;;;;5054868;28;20107;-70
2023/10/09 08:45:54;;;;;;;2.80;2.42;;;;;;;;;;5069229;28;20036;-69
2023/10/09 08:48:26;;;;;;;3.38;2.42;;;;;;;;;;5035991;28;20016;-70
2023/10/09 08:50:54;;;;;;;3.10;1.90;;;;;;;;;;5036830;28;20398;-70
2023/10/09 08:53:20;;;;;;;3.10;2.17;;;;;;;;;;5053995;28;20033;-70
2023/10/09 08:55:46;;;;;;;3.53;2.58;;;;;;;;;;5035845;28;20509;-70
2023/10/09 08:58:24;;;;;;;3.75;2.17;;;;;;;;;;5051456;28;20028;-70
2023/10/09 09:00:50;;;;;;;2.92;2.50;;;;;;;;;;5037829;28;20025;-70
2023/10/09 09:03:25;;;;;;;3.83;2.30;;;;;;;;;;5058302;28;20104;-70
2023/10/09 09:06:01;;;;;;;3.20;2.38;;;;;;;;;;5089641;28;20028;-69
2023/10/09 09:08:28;;;;;;;3.60;2.42;;;;;;;;;;5075709;28;20016;-70
2023/10/09 09:10:59;;;;;;;3.47;2.38;;;;;;;;;;5056398;28;20024;-70
2023/10/09 09:13:25;;;;;;;;;;;;;;;;;;5073714;28;20048;-70
2023/10/09 09:15:53;;;;;;;3.10;2.22;;;;;;;;;;5072809;28;19955;-70
2023/10/09 09:18:19;;;;;;;3.40;1.88;;;;;;;;;;5056147;28;20029;-70
2023/10/09 09:20:47;;;;;;;3.13;2.00;;;;;;;;;;5074780;28;20043;-70
2023/10/09 09:23:13;;;;;;;3.95;2.33;;;;;;;;;;5038917;28;20108;-70
2023/10/09 09:25:59;;;;;;;3.65;2.20;;;;;;;;;;5035225;28;20053;-70
2023/10/09 09:28:26;;;;;;;2.70;2.05;;;;;;;;;;5068246;28;20138;-70
2023/10/09 09:30:53;;;;;;;2.45;2.25;;;;;;;;;;5055006;28;20033;-70
2023/10/09 09:33:30;;;;;;;2.80;2.10;;;;;;;;;;5072960;28;20031;-70
2023/10/09 09:36:02;;;;;;;2.30;2.00;;;;;;;;;;5039297;28;20028;-70
2023/10/09 09:38:29;;;;;;;2.50;2.10;;;;;;;;;;5055854;28;20409;-70
2023/10/09 09:40:56;;;;;;;4.07;2.35;;;;;;;;;;5078768;28;20024;-69
2023/10/09 09:43:22;;;;;;;3.03;2.65;;;;;;;;;;5035413;28;20028;-70
2023/10/09 09:45:49;;;;;;;2.10;1.70;;;;;;;;;;5034873;28;20021;-70
2023/10/09 09:48:16;;;;;;;3.33;2.20;;;;;;;;;;5053544;28;20024;-71
2023/10/09 09:50:45;;;;;;;3.28;2.70;;;;;;;;;;5052727;28;20087;-70
2023/10/09 09:53:16;;;;;;;3.78;2.33;;;;;;;;;;5057408;28;20085;-70
2023/10/09 09:55:51;;;;;;;3.00;2.70;;;;;;;;;;5057191;28;20482;-70
2023/10/09 09:58:20;;;;;;;2.95;2.30;;;;;;;;;;5060252;28;20028;-70
2023/10/09 10:00:52;;;;;;;3.00;1.95;;;;;;;;;;5057913;28;20431;-70
2023/10/09 10:03:34;;;;;;;2.85;1.92;;;;;;;;;;5076931;28;20432;-70
2023/10/09 10:06:04;;;;;;;4.15;2.45;;;;;;;;;;5059986;28;20449;-70
2023/10/09 10:08:33;;;;;;;2.88;2.38;;;;;;;;;;5059744;28;20047;-70
2023/10/09 10:11:05;;;;;;;3.97;2.88;;;;;;;;;;5060903;28;20544;-70
2023/10/09 10:13:56;;;;;;;2.20;1.95;;;;;;;;;;5062133;28;20108;-70
2023/10/09 10:16:21;;;;;;;3.08;1.92;;;;;;;;;;5076782;28;20058;-70
2023/10/09 10:21:48;;;;;;;2.33;1.90;;;;;;;;;;5061354;28;20035;-70
2023/10/09 10:24:30;;;;;;;2.25;2.05;;;;;;;;;;5077236;28;20021;-69
2023/10/09 10:27:18;;;;;;;2.65;2.30;;;;;;;;;;5077364;28;20032;-70
2023/10/09 10:29:45;;;;;;;4.10;2.78;;;;;;;;;;5075087;28;20056;-70
2023/10/09 10:32:11;;;;;;;3.28;2.28;;;;;;;;;;5054173;28;20020;-70
2023/10/09 10:34:58;;;;;;;3.28;2.00;;;;;;;;;;5058670;28;20046;-70
2023/10/09 10:37:51;;;;;;;2.80;2.33;;;;;;;;;;5076275;28;20055;-70
2023/10/09 10:40:38;;;;;;;2.95;2.53;;;;;;;;;;5084709;28;20024;-70
2023/10/09 10:43:13;;;;;;;4.45;2.83;;;;;;;;;;5040045;28;20024;-70
2023/10/09 10:45:45;;;;;;;3.33;2.45;;;;;;;;;;5056711;28;20121;-70
2023/10/09 10:48:22;;;;;;;2.97;2.67;;;;;;;;;;5039252;28;20110;-70
2023/10/09 10:50:49;;;;;;;2.17;1.90;;;;;;;;;;5039721;28;20392;-70
2023/10/09 10:53:15;;;;;;;3.05;2.20;;;;;;;;;;5069214;28;20024;-70
2023/10/09 10:59:11;;;;;;;3.22;2.92;;;;;;;;;;5059637;28;20048;-70
2023/10/09 11:07:09;;;;;;;2.65;2.20;;;;;;;;;;5077833;28;20423;-70
2023/10/09 11:12:42;;;;;;;2.90;2.60;;;;;;;;;;5040455;28;20086;-70
2023/10/09 11:18:16;;;;;;;2.20;2.00;;;;;;;;;;5074342;28;20037;-70
2023/10/09 11:20:53;;;;;;;2.42;1.90;;;;;;;;;;5059615;28;20029;-70
2023/10/09 11:23:29;;;;;;;2.13;1.80;;;;;;;;;;5044375;28;20501;-70
2023/10/09 11:26:07;;;;;;;5.03;2.58;;;;;;;;;;5058174;28;20070;-70
2023/10/09 11:28:49;;;;;;;3.42;2.42;;;;;;;;;;5073750;28;20758;-70
2023/10/09 11:31:17;;;;;;;4.22;2.13;;;;;;;;;;5079658;28;20032;-70
2023/10/09 11:33:48;;;;;;;2.88;2.20;;;;;;;;;;5075418;28;20111;-70
2023/10/09 11:36:17;;;;;;;2.97;2.50;;;;;;;;;;5075852;28;20032;-70
2023/10/09 11:38:45;;;;;;;3.05;2.75;;;;;;;;;;5057085;28;20029;-70
2023/10/09 11:41:24;;;;;;;2.60;2.35;;;;;;;;;;5053605;28;20027;-70
2023/10/09 11:43:54;;;;;;;2.83;2.13;;;;;;;;;;5057014;28;20123;-70
2023/10/09 11:54:35;;;;;;;2.65;2.35;;;;;;;;;;5075178;28;20058;-70
2023/10/09 11:57:01;;;;;;;3.03;2.13;;;;;;;;;;5057210;28;20104;-70
2023/10/09 11:59:27;;;;;;;3.47;2.15;;;;;;;;;;5056607;28;20474;-69
2023/10/09 12:01:54;;;;;;;1.95;1.52;;;;;;;;;;5055404;28;20387;-70
2023/10/09 12:04:20;;;;;;;2.83;1.90;;;;;;;;;;5074768;28;20075;-70
2023/10/09 12:06:45;;;;;;;2.78;2.30;;;;;;;;;;5077440;28;20032;-70
2023/10/09 12:09:17;;;;;;;2.42;2.22;;;;;;;;;;5074401;28;20017;-70
2023/10/09 12:11:42;;;;;;;2.33;1.92;;;;;;;;;;5075019;28;20498;-70
2023/10/09 12:14:09;;;;;;;2.58;1.98;;;;;;;;;;5056667;28;20139;-70
2023/10/09 12:16:38;;;;;;;2.60;2.40;;;;;;;;;;5056172;28;20032;-70
2023/10/09 12:19:09;;;;;;;2.50;1.70;;;;;;;;;;5074471;28;20459;-70
2023/10/09 12:21:38;;;;;;;2.63;1.98;;;;;;;;;;5056457;28;20028;-70
2023/10/09 12:24:11;;;;;;;4.40;1.88;;;;;;;;;;5056566;28;20058;-70
2023/10/09 12:26:38;;;;;;;2.40;1.90;;;;;;;;;;5074289;28;20023;-70
2023/10/09 12:29:03;;;;;;;1.90;1.80;;;;;;;;;;5074420;28;20104;-70
2023/10/09 12:31:33;;;;;;;2.45;2.00;;;;;;;;;;5055920;28;20461;-70
2023/10/09 12:33:59;;;;;;;3.08;2.63;;;;;;;;;;5074165;28;20522;-70
2023/10/09 12:36:24;;;;;;;2.45;2.10;;;;;;;;;;5073955;28;20028;-70
2023/10/09 12:38:54;;;;;;;2.97;2.20;;;;;;;;;;5055746;28;20017;-70
2023/10/09 12:41:25;;;;;;;2.47;1.98;;;;;;;;;;5078922;28;20028;-70
2023/10/09 12:43:51;;;;;;;2.70;2.08;;;;;;;;;;5056935;28;20017;-70
2023/10/09 12:46:17;;;;;;;3.03;1.90;;;;;;;;;;5056281;28;20497;-70
2023/10/09 12:48:46;;;;;;;2.40;2.17;;;;;;;;;;5056023;28;20028;-70
2023/10/09 12:51:16;;;;;;;2.22;2.03;;;;;;;;;;5073272;28;20029;-70
2023/10/09 12:53:41;;;;;;;2.40;1.90;;;;;;;;;;5056801;28;20070;-70
2023/10/09 12:56:11;;;;;;;3.25;1.90;;;;;;;;;;5055989;28;20016;-70
2023/10/09 12:58:37;;;;;;;2.35;2.00;;;;;;;;;;5075783;28;20030;-70
2023/10/09 13:01:11;;;;;;;2.38;1.95;;;;;;;;;;5076345;28;20127;-70
2023/10/09 13:03:39;;;;;;;2.30;1.90;;;;;;;;;;5093770;28;20024;-70
2023/10/09 13:06:10;;;;;;;2.30;2.05;;;;;;;;;;5084813;28;20035;-70
2023/10/09 13:08:36;;;;;;;3.00;2.28;;;;;;;;;;5076436;28;20042;-71
2023/10/09 13:11:12;;;;;;;3.10;2.25;;;;;;;;;;5060876;28;20546;-70
2023/10/09 13:13:42;;;;;;;2.33;2.03;;;;;;;;;;5056306;28;20122;-70
2023/10/09 13:16:13;;;;;;;2.55;2.00;;;;;;;;;;5073826;28;20031;-70
2023/10/09 13:18:49;;;;;;;2.53;2.13;;;;;;;;;;5073819;28;20086;-70
2023/10/09 13:21:21;;;;;;;3.22;2.10;;;;;;;;;;5056399;28;20024;-70
2023/10/09 13:23:49;;;;;;;3.55;2.30;;;;;;;;;;5054991;28;20443;-71
2023/10/09 13:26:18;;;;;;;3.00;2.40;;;;;;;;;;5055289;28;20479;-70
2023/10/09 13:28:48;;;;;;;3.17;2.10;;;;;;;;;;5072631;28;20100;-70
2023/10/09 13:31:14;;;;;;;2.78;2.42;;;;;;;;;;5055787;28;20020;-70
2023/10/09 13:33:40;;;;;;;2.72;2.28;;;;;;;;;;5055185;28;20020;-70
2023/10/09 13:36:16;;;;;;;2.83;2.55;;;;;;;;;;5051468;28;20029;-70
2023/10/09 13:38:43;;;;;;;3.45;2.22;;;;;;;;;;5041034;28;20027;-70
2023/10/09 13:41:12;;;;;;;3.53;2.50;;;;;;;;;;5073300;28;20021;-70
2023/10/09 13:43:40;;;;;;;4.20;2.65;;;;;;;;;;5055034;28;20033;-70
2023/10/09 13:46:08;;;;;;;3.03;2.45;;;;;;;;;;5074467;28;20106;-70
2023/10/09 13:48:38;;;;;;;2.95;2.63;;;;;;;;;;5072798;28;20017;-70
2023/10/09 13:51:08;;;;;;;2.88;2.30;;;;;;;;;;5055371;28;20036;-70
2023/10/09 13:53:44;;;;;;;2.85;2.40;;;;;;;;;;5035953;28;20025;-70
2023/10/09 13:56:19;;;;;;;2.63;2.03;;;;;;;;;;5052863;28;20070;-70
2023/10/09 13:58:47;;;;;;;2.70;1.75;;;;;;;;;;5053636;28;20021;-70
2023/10/09 14:01:20;;;;;;;1.75;1.30;;;;;;;;;;5069841;28;20048;-70
2023/10/09 14:04:06;;;;;;;3.08;2.22;;;;;;;;;;5092947;28;20051;-70
2023/10/09 14:06:31;;;;;;;3.03;2.38;;;;;;;;;;5055447;28;20037;-70
2023/10/09 14:08:57;;;;;;;2.10;1.75;;;;;;;;;;5054212;28;20029;-70
2023/10/09 14:11:24;;;;;;;2.08;1.88;;;;;;;;;;5072749;28;20490;-70
2023/10/09 14:13:51;;;;;;;2.53;2.25;;;;;;;;;;5073197;28;20049;-71
2023/10/09 14:16:27;;;;;;;2.65;2.10;;;;;;;;;;5072470;28;20044;-70
2023/10/09 14:19:00;;;;;;;3.30;2.17;;;;;;;;;;5073173;28;20021;-71
2023/10/09 14:21:32;;;;;;;2.95;2.10;;;;;;;;;;5055332;28;20090;-70
2023/10/09 14:23:58;;;;;;;3.58;2.47;;;;;;;;;;5056034;28;20031;-70
2023/10/09 14:26:28;;;;;;;2.65;2.10;;;;;;;;;;5055188;28;20028;-71
2023/10/09 14:28:56;;;;;;;3.55;2.13;;;;;;;;;;5055060;28;20033;-70
2023/10/09 14:31:26;;;;;;;2.90;2.70;;;;;;;;;;5072783;28;20020;-70
2023/10/09 14:34:02;;;;;;;2.78;2.28;;;;;;;;;;5055481;28;20103;-70
2023/10/09 14:36:33;;;;;;;3.25;2.30;;;;;;;;;;5068425;23;20420;-74
2023/10/09 14:38:59;;;;;;;2.40;2.10;;;;;;;;;;5056733;28;20510;-74
2023/10/09 14:41:25;;;;;;;3.75;2.08;;;;;;;;;;5058256;28;20048;-73
2023/10/09 14:43:54;;;;;;;3.72;2.50;;;;;;;;;;5059262;28;20020;-73
2023/10/09 14:46:27;;;;;;;3.75;2.70;;;;;;;;;;5058971;28;20032;-74
2023/10/09 14:48:53;;;;;;;3.80;2.70;;;;;;;;;;5076730;28;20024;-73
2023/10/09 14:51:26;;;;;;;3.08;2.53;;;;;;;;;;5058784;28;20039;-74
2023/10/09 14:53:58;;;;;;;2.38;2.17;;;;;;;;;;5059590;28;20048;-74
2023/10/09 14:56:36;;;;;;;4.07;2.80;;;;;;;;;;5058343;28;20056;-74
2023/10/09 14:59:02;;;;;;;4.00;2.63;;;;;;;;;;5057938;28;20024;-74
2023/10/09 15:01:31;;;;;;;4.45;2.03;;;;;;;;;;5058799;28;20367;-73
2023/10/09 15:03:59;;;;;;;5.50;3.40;;;;;;;;;;5076630;28;20138;-74
2023/10/09 15:06:27;;;;;;;3.75;3.17;;;;;;;;;;5058410;28;20024;-73
2023/10/09 15:08:55;;;;;;;5.30;3.50;;;;;;;;;;5058112;28;20433;-73
2023/10/09 15:11:25;;;;;;;4.35;3.83;;;;;;;;;;5076348;28;20107;-73
2023/10/09 15:13:52;;;;;;;4.25;3.40;;;;;;;;;;5044941;28;20020;-74
2023/10/09 15:16:17;;;;;;;4.00;3.38;;;;;;;;;;5037741;28;20055;-73
2023/10/09 15:18:43;;;;;;;3.78;3.38;;;;;;;;;;5075107;28;20056;-74
2023/10/09 15:21:08;;;;;;;5.38;3.58;;;;;;;;;;5075995;28;20040;-73
2023/10/09 15:23:35;;;;;;;3.60;3.20;;;;;;;;;;5058204;28;20020;-73
2023/10/09 15:26:01;;;;;;;5.30;3.50;;;;;;;;;;5058529;28;20017;-73
2023/10/09 15:28:32;;;;;;;3.97;3.28;;;;;;;;;;5075912;28;20478;-73
2023/10/09 15:30:57;;;;;;;3.80;3.10;;;;;;;;;;5076550;28;20031;-73
2023/10/09 15:33:22;;;;;;;3.85;3.05;;;;;;;;;;5075529;28;20021;-74
2023/10/09 15:35:49;;;;;;;3.85;2.80;;;;;;;;;;5056494;28;20028;-73
2023/10/09 15:38:15;;;;;;;4.60;3.45;;;;;;;;;;5075546;28;20028;-73
2023/10/09 15:40:46;;;;;;;4.00;2.15;;;;;;;;;;5058021;28;20401;-73
2023/10/09 15:43:13;;;;;;;3.70;2.83;;;;;;;;;;5073712;28;20021;-74
2023/10/09 15:45:47;;;;;;;3.33;3.00;;;;;;;;;;5040746;28;20035;-74
2023/10/09 15:48:15;;;;;;;4.13;2.40;;;;;;;;;;5058037;28;20056;-74
2023/10/09 15:50:48;;;;;;;3.70;2.63;;;;;;;;;;5075587;28;20024;-74
2023/10/09 15:53:13;;;;;;;4.10;2.78;;;;;;;;;;5040760;28;20032;-74
2023/10/09 15:55:39;;;;;;;4.78;3.20;;;;;;;;;;5057234;28;20030;-74
2023/10/09 15:58:08;;;;;;;5.22;3.28;;;;;;;;;;5075304;28;20471;-73
2023/10/09 16:00:33;;;;;;;4.93;2.70;;;;;;;;;;5075475;28;20031;-73
2023/10/09 16:03:00;;;;;;;4.07;3.10;;;;;;;;;;5075413;28;20024;-73
2023/10/09 16:05:25;;;;;;;3.65;3.08;;;;;;;;;;5040940;28;20490;-73
2023/10/09 16:07:52;;;;;;;3.45;2.70;;;;;;;;;;5057373;28;20067;-74
2023/10/09 16:10:20;;;;;;;3.63;2.65;;;;;;;;;;5074569;28;20112;-73
2023/10/09 16:12:46;;;;;;;5.95;4.95;;;;;;;;;;5057411;28;20154;-74
2023/10/09 16:15:14;;;;;;;4.53;3.33;;;;;;;;;;5075487;28;20024;-73
2023/10/09 16:17:39;;;;;;;5.00;3.55;;;;;;;;;;5057300;28;20025;-73
2023/10/09 16:20:13;;;;;;;3.22;2.75;;;;;;;;;;5056611;28;20021;-73
2023/10/09 16:22:39;;;;;;;4.80;3.47;;;;;;;;;;5058077;28;20028;-73
2023/10/09 16:25:09;;;;;;;5.03;3.90;;;;;;;;;;5057254;28;20496;-72
2023/10/09 16:27:39;;;;;;;4.30;3.60;;;;;;;;;;5074766;28;20028;-73
2023/10/09 16:30:05;;;;;;;4.22;3.05;;;;;;;;;;5074711;28;20025;-72
2023/10/09 16:32:31;;;;;;;5.88;3.92;;;;;;;;;;5056484;28;20036;-74
2023/10/09 16:34:58;;;;;;;4.85;2.95;;;;;;;;;;5056771;28;20032;-72
2023/10/09 16:37:24;;;;;;;4.78;3.10;;;;;;;;;;5040008;28;20115;-72
2023/10/09 16:39:53;;;;;;;4.50;3.03;;;;;;;;;;5057125;28;20075;-72
2023/10/09 16:42:21;;;;;;;6.10;3.00;;;;;;;;;;5074525;28;20025;-73
2023/10/09 16:44:47;;;;;;;6.85;4.13;;;;;;;;;;5074001;28;20470;-73
2023/10/09 16:47:12;;;;;;;5.63;3.20;;;;;;;;;;5074486;28;20039;-73
2023/10/09 16:49:38;;;;;;;6.22;3.85;;;;;;;;;;5056584;28;20474;-73
2023/10/09 16:52:10;;;;;;;6.45;4.22;;;;;;;;;;5074592;28;20028;-73
2023/10/09 16:54:36;;;;;;;5.30;3.97;;;;;;;;;;5057878;28;20028;-73
2023/10/09 16:57:02;;;;;;;6.53;3.63;;;;;;;;;;5073892;28;20039;-73
2023/10/09 16:59:27;;;;;;;5.82;3.75;;;;;;;;;;5056426;28;20013;-73
2023/10/09 17:01:53;;;;;;;5.72;3.35;;;;;;;;;;5074459;28;20028;-74
2023/10/09 17:04:23;;;;;;;6.38;3.38;;;;;;;;;;5038996;28;20033;-73
2023/10/09 17:06:51;;;;;;;6.47;4.32;;;;;;;;;;5055649;28;20074;-73
2023/10/09 17:09:19;;;;;;;5.78;4.05;;;;;;;;;;5074359;28;20063;-73
2023/10/09 17:11:46;;;;;;;8.70;4.50;;;;;;;;;;5074076;28;20425;-73
2023/10/09 17:14:15;;;;;;;6.13;3.75;;;;;;;;;;5055903;28;20020;-73
2023/10/09 17:16:44;;;;;;;7.53;4.20;;;;;;;;;;5074052;28;20017;-73
2023/10/09 17:19:10;;;;;;;5.25;4.05;;;;;;;;;;5073852;28;20047;-73
2023/10/09 17:21:36;;;;;;;10.38;5.05;;;;;;;;;;5074260;28;20478;-73
2023/10/09 17:24:02;;;;;;;9.70;5.95;;;;;;;;;;5073956;28;20028;-73
2023/10/09 17:26:29;;;;;;;7.50;5.65;;;;;;;;;;5073523;28;20032;-73
2023/10/09 17:28:54;;;;;;;8.80;4.78;;;;;;;;;;5055999;28;20024;-73
2023/10/09 17:31:20;;;;;;;10.18;6.63;;;;;;;;;;5073973;28;20036;-73
2023/10/09 17:33:47;;;;;;;13.20;9.43;;;;;;;;;;5055988;28;20027;-73
2023/10/09 17:36:12;;;;;;;11.88;8.18;;;;;;;;;;5073377;28;20500;-72
2023/10/09 17:38:37;;;;;;;19.42;12.93;;;;;;;;;;5073848;28;20025;-73
2023/10/09 17:41:06;;;;;;;17.08;11.10;;;;;;;;;;5074031;28;20454;-73
2023/10/09 17:43:31;;;;;;;18.63;11.32;;;;;;;;;;5039106;28;20493;-72